sensor_id;sensor_type;location;lat;lon;timestamp;temperature;humidity
46029;DHT22;31763;48.180;7.904;2022-12-07T00:01:37;2.30;99.90
46029;DHT22;31763;48.180;7.904;2022-12-07T00:04:10;2.30;99.90
46029;DHT22;31763;48.180;7.904;2022-12-07T00:06:39;2.40;99.90
46029;DHT22;31763;48.180;7.904;2022-12-07T00:09:08;2.20;99.90
46029;DHT22;31763;48.180;7.904;2022-12-07T00:11:37;2.20;99.90
46029;DHT22;31763;48.180;7.904;2022-12-07T00:14:05;2.30;99.90
46029;DHT22;31763;48.180;7.904;2022-12-07T00:16:33;2.30;99.90
46029;DHT22;31763;48.180;7.904;2022-12-07T00:19:00;2.30;99.90
46029;DHT22;31763;48.180;7.904;2022-12-07T00:21:28;2.40;99.90
46029;DHT22;31763;48.180;7.904;2022-12-07T00:24:03;2.40;99.90
46029;DHT22;31763;48.180;7.904;2022-12-07T00:26:32;2.40;99.90
46029;DHT22;31763;48.180;7.904;2022-12-07T00:29:02;2.40;99.90
46029;DHT22;31763;48.180;7.904;2022-12-07T00:31:32;2.40;99.90
46029;DHT22;31763;48.180;7.904;2022-12-07T00:34:01;2.40;99.90
46029;DHT22;31763;48.180;7.904;2022-12-07T00:36:28;2.40;99.90
46029;DHT22;31763;48.180;7.904;2022-12-07T00:38:55;2.50;99.90
46029;DHT22;31763;48.180;7.904;2022-12-07T00:41:24;2.40;99.90
46029;DHT22;31763;48.180;7.904;2022-12-07T00:43:52;2.60;99.90
46029;DHT22;31763;48.180;7.904;2022-12-07T00:46:20;2.70;99.90
46029;DHT22;31763;48.180;7.904;2022-12-07T00:48:47;2.40;99.90
46029;DHT22;31763;48.180;7.904;2022-12-07T00:51:15;2.40;99.90
46029;DHT22;31763;48.180;7.904;2022-12-07T00:53:43;2.60;99.90
46029;DHT22;31763;48.180;7.904;2022-12-07T00:56:14;2.50;99.90
46029;DHT22;31763;48.180;7.904;2022-12-07T00:58:42;2.40;99.90
46029;DHT22;31763;48.180;7.904;2022-12-07T01:01:10;2.40;99.90
46029;DHT22;31763;48.180;7.904;2022-12-07T01:03:37;2.30;99.90
46029;DHT22;31763;48.180;7.904;2022-12-07T01:06:04;2.30;99.90
46029;DHT22;31763;48.180;7.904;2022-12-07T01:08:31;2.40;99.90
46029;DHT22;31763;48.180;7.904;2022-12-07T01:11:06;2.40;99.90
46029;DHT22;31763;48.180;7.904;2022-12-07T01:13:34;2.50;99.90
46029;DHT22;31763;48.180;7.904;2022-12-07T01:16:02;2.60;99.90
46029;DHT22;31763;48.180;7.904;2022-12-07T01:18:31;2.60;99.90
46029;DHT22;31763;48.180;7.904;2022-12-07T01:23:26;2.40;99.90
46029;DHT22;31763;48.180;7.904;2022-12-07T01:25:54;2.40;99.90
46029;DHT22;31763;48.180;7.904;2022-12-07T01:28:22;2.40;99.90
46029;DHT22;31763;48.180;7.904;2022-12-07T01:31:23;2.50;99.90
46029;DHT22;31763;48.180;7.904;2022-12-07T01:33:44;2.40;99.90
46029;DHT22;31763;48.180;7.904;2022-12-07T01:36:16;2.50;99.90
46029;DHT22;31763;48.180;7.904;2022-12-07T01:38:45;2.40;99.90
46029;DHT22;31763;48.180;7.904;2022-12-07T01:41:12;2.50;99.90
46029;DHT22;31763;48.180;7.904;2022-12-07T01:46:34;2.40;99.90
46029;DHT22;31763;48.180;7.904;2022-12-07T01:49:01;2.50;99.90
46029;DHT22;31763;48.180;7.904;2022-12-07T01:51:32;2.40;99.90
46029;DHT22;31763;48.180;7.904;2022-12-07T01:53:59;2.40;99.90
46029;DHT22;31763;48.180;7.904;2022-12-07T01:56:27;2.40;99.90
46029;DHT22;31763;48.180;7.904;2022-12-07T01:58:55;2.40;99.90
46029;DHT22;31763;48.180;7.904;2022-12-07T02:01:22;2.20;99.90
46029;DHT22;31763;48.180;7.904;2022-12-07T02:03:49;2.10;99.90
46029;DHT22;31763;48.180;7.904;2022-12-07T02:06:17;2.00;99.90
46029;DHT22;31763;48.180;7.904;2022-12-07T02:08:46;2.10;99.90
46029;DHT22;31763;48.180;7.904;2022-12-07T02:11:13;2.00;99.90
46029;DHT22;31763;48.180;7.904;2022-12-07T02:13:40;1.90;99.90
46029;DHT22;31763;48.180;7.904;2022-12-07T02:21:58;1.90;99.90
46029;DHT22;31763;48.180;7.904;2022-12-07T02:27:39;1.90;99.90
46029;DHT22;31763;48.180;7.904;2022-12-07T02:30:14;1.90;99.90
46029;DHT22;31763;48.180;7.904;2022-12-07T02:35:19;1.90;99.90
46029;DHT22;31763;48.180;7.904;2022-12-07T02:41:47;2.00;99.90
46029;DHT22;31763;48.180;7.904;2022-12-07T02:43:54;2.00;99.90
46029;DHT22;31763;48.180;7.904;2022-12-07T02:46:23;2.00;99.90
46029;DHT22;31763;48.180;7.904;2022-12-07T02:48:52;1.90;99.90
46029;DHT22;31763;48.180;7.904;2022-12-07T02:51:21;1.90;99.90
46029;DHT22;31763;48.180;7.904;2022-12-07T02:53:48;1.90;99.90
46029;DHT22;31763;48.180;7.904;2022-12-07T03:13:32;1.90;99.90
46029;DHT22;31763;48.180;7.904;2022-12-07T03:21:51;1.80;99.90
46029;DHT22;31763;48.180;7.904;2022-12-07T03:24:31;1.80;99.90
46029;DHT22;31763;48.180;7.904;2022-12-07T03:27:20;2.00;99.90
46029;DHT22;31763;48.180;7.904;2022-12-07T03:30:05;2.00;99.90
46029;DHT22;31763;48.180;7.904;2022-12-07T03:32:43;2.10;99.90
46029;DHT22;31763;48.180;7.904;2022-12-07T03:35:22;2.10;99.90
46029;DHT22;31763;48.180;7.904;2022-12-07T03:37:59;2.00;99.90
46029;DHT22;31763;48.180;7.904;2022-12-07T03:40:33;2.00;99.90
46029;DHT22;31763;48.180;7.904;2022-12-07T03:43:04;2.10;99.90
46029;DHT22;31763;48.180;7.904;2022-12-07T03:45:44;2.20;99.90
46029;DHT22;31763;48.180;7.904;2022-12-07T03:48:25;2.10;99.90
46029;DHT22;31763;48.180;7.904;2022-12-07T03:51:03;2.00;99.90
46029;DHT22;31763;48.180;7.904;2022-12-07T03:53:37;2.00;99.90
46029;DHT22;31763;48.180;7.904;2022-12-07T03:56:26;2.00;99.90
46029;DHT22;31763;48.180;7.904;2022-12-07T03:59:02;1.90;99.90
46029;DHT22;31763;48.180;7.904;2022-12-07T04:02:07;1.90;99.90
46029;DHT22;31763;48.180;7.904;2022-12-07T04:05:02;2.00;99.90
46029;DHT22;31763;48.180;7.904;2022-12-07T04:08:08;2.00;99.90
46029;DHT22;31763;48.180;7.904;2022-12-07T04:11:02;2.10;99.90
46029;DHT22;31763;48.180;7.904;2022-12-07T04:14:16;2.10;99.90
46029;DHT22;31763;48.180;7.904;2022-12-07T04:16:57;2.00;99.90
46029;DHT22;31763;48.180;7.904;2022-12-07T04:20:04;2.10;99.90
46029;DHT22;31763;48.180;7.904;2022-12-07T04:22:47;1.70;99.90
46029;DHT22;31763;48.180;7.904;2022-12-07T04:25:14;1.80;99.90
46029;DHT22;31763;48.180;7.904;2022-12-07T04:27:42;1.60;99.90
46029;DHT22;31763;48.180;7.904;2022-12-07T04:30:08;1.60;99.90
46029;DHT22;31763;48.180;7.904;2022-12-07T04:32:35;1.80;99.90
46029;DHT22;31763;48.180;7.904;2022-12-07T04:35:02;1.80;99.90
46029;DHT22;31763;48.180;7.904;2022-12-07T04:37:29;1.80;99.90
46029;DHT22;31763;48.180;7.904;2022-12-07T04:39:56;1.90;99.90
46029;DHT22;31763;48.180;7.904;2022-12-07T04:42:22;2.00;99.90
46029;DHT22;31763;48.180;7.904;2022-12-07T04:44:49;2.00;99.90
46029;DHT22;31763;48.180;7.904;2022-12-07T04:47:17;1.70;99.90
46029;DHT22;31763;48.180;7.904;2022-12-07T04:49:43;1.60;99.90
46029;DHT22;31763;48.180;7.904;2022-12-07T04:52:10;1.70;99.90
46029;DHT22;31763;48.180;7.904;2022-12-07T04:54:37;1.90;99.90
46029;DHT22;31763;48.180;7.904;2022-12-07T04:57:04;2.00;99.90
46029;DHT22;31763;48.180;7.904;2022-12-07T04:59:30;2.10;99.90
46029;DHT22;31763;48.180;7.904;2022-12-07T05:01:57;2.10;99.90
46029;DHT22;31763;48.180;7.904;2022-12-07T05:04:24;2.10;99.90
46029;DHT22;31763;48.180;7.904;2022-12-07T05:06:50;2.00;99.90
46029;DHT22;31763;48.180;7.904;2022-12-07T05:09:17;2.10;99.90
46029;DHT22;31763;48.180;7.904;2022-12-07T05:11:44;2.10;99.90
46029;DHT22;31763;48.180;7.904;2022-12-07T05:14:15;2.00;99.90
46029;DHT22;31763;48.180;7.904;2022-12-07T05:16:43;2.00;99.90
46029;DHT22;31763;48.180;7.904;2022-12-07T05:19:12;1.70;99.90
46029;DHT22;31763;48.180;7.904;2022-12-07T05:21:38;1.60;99.90
46029;DHT22;31763;48.180;7.904;2022-12-07T05:24:06;1.40;99.90
46029;DHT22;31763;48.180;7.904;2022-12-07T05:26:33;1.30;99.90
46029;DHT22;31763;48.180;7.904;2022-12-07T05:29:00;1.30;99.90
46029;DHT22;31763;48.180;7.904;2022-12-07T05:31:27;1.30;99.90
46029;DHT22;31763;48.180;7.904;2022-12-07T05:33:54;1.20;99.90
46029;DHT22;31763;48.180;7.904;2022-12-07T05:36:21;1.20;99.90
46029;DHT22;31763;48.180;7.904;2022-12-07T05:38:48;1.10;99.90
46029;DHT22;31763;48.180;7.904;2022-12-07T05:41:15;1.10;99.90
46029;DHT22;31763;48.180;7.904;2022-12-07T05:44:02;1.10;99.90
46029;DHT22;31763;48.180;7.904;2022-12-07T05:46:29;1.00;99.90
46029;DHT22;31763;48.180;7.904;2022-12-07T05:48:55;1.00;99.90
46029;DHT22;31763;48.180;7.904;2022-12-07T05:51:22;1.00;99.90
46029;DHT22;31763;48.180;7.904;2022-12-07T05:53:49;1.00;99.90
46029;DHT22;31763;48.180;7.904;2022-12-07T05:56:16;0.90;99.90
46029;DHT22;31763;48.180;7.904;2022-12-07T05:58:42;0.90;99.90
46029;DHT22;31763;48.180;7.904;2022-12-07T06:01:27;0.80;99.90
46029;DHT22;31763;48.180;7.904;2022-12-07T06:03:54;0.90;99.90
46029;DHT22;31763;48.180;7.904;2022-12-07T06:06:21;0.80;99.90
46029;DHT22;31763;48.180;7.904;2022-12-07T06:08:48;0.70;99.90
46029;DHT22;31763;48.180;7.904;2022-12-07T06:11:14;0.70;99.90
46029;DHT22;31763;48.180;7.904;2022-12-07T06:14:00;0.70;99.90
46029;DHT22;31763;48.180;7.904;2022-12-07T06:16:26;0.70;99.90
46029;DHT22;31763;48.180;7.904;2022-12-07T06:18:53;0.90;99.90
46029;DHT22;31763;48.180;7.904;2022-12-07T06:21:20;0.70;99.90
46029;DHT22;31763;48.180;7.904;2022-12-07T06:23:46;0.60;99.90
46029;DHT22;31763;48.180;7.904;2022-12-07T06:26:14;0.50;99.90
46029;DHT22;31763;48.180;7.904;2022-12-07T06:28:41;0.50;99.90
46029;DHT22;31763;48.180;7.904;2022-12-07T06:31:08;0.70;99.90
46029;DHT22;31763;48.180;7.904;2022-12-07T06:33:39;0.60;99.90
46029;DHT22;31763;48.180;7.904;2022-12-07T06:36:07;0.50;99.90
46029;DHT22;31763;48.180;7.904;2022-12-07T06:38:34;0.60;99.90
46029;DHT22;31763;48.180;7.904;2022-12-07T06:41:00;0.70;99.90
46029;DHT22;31763;48.180;7.904;2022-12-07T06:43:27;0.50;99.90
46029;DHT22;31763;48.180;7.904;2022-12-07T06:45:55;0.50;99.90
46029;DHT22;31763;48.180;7.904;2022-12-07T06:48:22;0.40;99.90
46029;DHT22;31763;48.180;7.904;2022-12-07T06:50:49;0.40;99.90
46029;DHT22;31763;48.180;7.904;2022-12-07T06:53:21;0.30;99.90
46029;DHT22;31763;48.180;7.904;2022-12-07T06:55:48;0.40;99.90
46029;DHT22;31763;48.180;7.904;2022-12-07T06:58:14;0.40;99.90
46029;DHT22;31763;48.180;7.904;2022-12-07T07:00:41;0.40;99.90
46029;DHT22;31763;48.180;7.904;2022-12-07T07:03:09;0.40;99.90
46029;DHT22;31763;48.180;7.904;2022-12-07T07:05:35;0.20;99.90
46029;DHT22;31763;48.180;7.904;2022-12-07T07:08:02;0.20;99.90
46029;DHT22;31763;48.180;7.904;2022-12-07T07:10:49;0.20;99.90
46029;DHT22;31763;48.180;7.904;2022-12-07T07:13:16;-0.10;99.90
46029;DHT22;31763;48.180;7.904;2022-12-07T07:15:43;0.00;99.90
46029;DHT22;31763;48.180;7.904;2022-12-07T07:18:09;0.00;99.90
46029;DHT22;31763;48.180;7.904;2022-12-07T07:20:36;-0.20;99.90
46029;DHT22;31763;48.180;7.904;2022-12-07T07:23:03;0.00;99.90
46029;DHT22;31763;48.180;7.904;2022-12-07T07:25:30;-0.20;99.90
46029;DHT22;31763;48.180;7.904;2022-12-07T07:27:57;-0.20;99.90
46029;DHT22;31763;48.180;7.904;2022-12-07T07:30:24;-0.20;99.90
46029;DHT22;31763;48.180;7.904;2022-12-07T07:32:55;0.00;99.90
46029;DHT22;31763;48.180;7.904;2022-12-07T07:35:23;0.20;99.90
46029;DHT22;31763;48.180;7.904;2022-12-07T07:37:50;0.30;99.90
46029;DHT22;31763;48.180;7.904;2022-12-07T07:40:17;0.40;99.90
46029;DHT22;31763;48.180;7.904;2022-12-07T07:42:46;0.50;99.90
46029;DHT22;31763;48.180;7.904;2022-12-07T07:45:14;0.40;99.90
46029;DHT22;31763;48.180;7.904;2022-12-07T07:47:41;0.50;99.90
46029;DHT22;31763;48.180;7.904;2022-12-07T07:50:08;0.60;99.90
46029;DHT22;31763;48.180;7.904;2022-12-07T07:52:35;0.60;99.90
46029;DHT22;31763;48.180;7.904;2022-12-07T07:55:02;0.60;99.90
46029;DHT22;31763;48.180;7.904;2022-12-07T07:57:29;0.80;99.90
46029;DHT22;31763;48.180;7.904;2022-12-07T07:59:55;0.90;99.90
46029;DHT22;31763;48.180;7.904;2022-12-07T08:02:22;0.90;99.90
46029;DHT22;31763;48.180;7.904;2022-12-07T08:04:49;1.00;99.90
46029;DHT22;31763;48.180;7.904;2022-12-07T08:07:16;0.90;99.90
46029;DHT22;31763;48.180;7.904;2022-12-07T08:09:43;0.90;99.90
46029;DHT22;31763;48.180;7.904;2022-12-07T08:12:09;0.90;99.90
46029;DHT22;31763;48.180;7.904;2022-12-07T08:14:36;1.00;99.90
46029;DHT22;31763;48.180;7.904;2022-12-07T08:17:03;1.10;99.90
46029;DHT22;31763;48.180;7.904;2022-12-07T08:19:29;1.10;99.90
46029;DHT22;31763;48.180;7.904;2022-12-07T08:21:56;1.20;99.90
46029;DHT22;31763;48.180;7.904;2022-12-07T08:24:23;1.10;99.90
46029;DHT22;31763;48.180;7.904;2022-12-07T08:26:49;1.10;99.90
46029;DHT22;31763;48.180;7.904;2022-12-07T08:29:16;1.20;99.90
46029;DHT22;31763;48.180;7.904;2022-12-07T08:31:43;1.20;99.90
46029;DHT22;31763;48.180;7.904;2022-12-07T08:34:11;1.20;99.90
46029;DHT22;31763;48.180;7.904;2022-12-07T08:36:38;1.20;99.90
46029;DHT22;31763;48.180;7.904;2022-12-07T08:39:05;1.20;99.90
46029;DHT22;31763;48.180;7.904;2022-12-07T08:41:52;1.20;99.90
46029;DHT22;31763;48.180;7.904;2022-12-07T08:44:18;1.20;99.90
46029;DHT22;31763;48.180;7.904;2022-12-07T08:46:46;1.30;99.90
46029;DHT22;31763;48.180;7.904;2022-12-07T08:49:24;1.30;99.90
46029;DHT22;31763;48.180;7.904;2022-12-07T08:51:57;1.40;99.90
46029;DHT22;31763;48.180;7.904;2022-12-07T08:54:24;1.30;99.90
46029;DHT22;31763;48.180;7.904;2022-12-07T08:56:51;1.30;99.90
46029;DHT22;31763;48.180;7.904;2022-12-07T08:59:24;1.20;99.90
46029;DHT22;31763;48.180;7.904;2022-12-07T09:01:52;1.30;99.90
46029;DHT22;31763;48.180;7.904;2022-12-07T09:04:19;1.30;99.90
46029;DHT22;31763;48.180;7.904;2022-12-07T09:06:46;1.40;99.90
46029;DHT22;31763;48.180;7.904;2022-12-07T09:09:13;1.40;99.90
46029;DHT22;31763;48.180;7.904;2022-12-07T09:11:40;1.20;99.90
46029;DHT22;31763;48.180;7.904;2022-12-07T09:14:08;1.10;99.90
46029;DHT22;31763;48.180;7.904;2022-12-07T09:16:34;1.10;99.90
46029;DHT22;31763;48.180;7.904;2022-12-07T09:19:01;1.10;99.90
46029;DHT22;31763;48.180;7.904;2022-12-07T09:21:28;1.10;99.90
46029;DHT22;31763;48.180;7.904;2022-12-07T09:23:55;1.10;99.90
46029;DHT22;31763;48.180;7.904;2022-12-07T09:26:21;1.10;99.90
46029;DHT22;31763;48.180;7.904;2022-12-07T09:28:48;1.10;99.90
46029;DHT22;31763;48.180;7.904;2022-12-07T09:31:15;1.20;99.90
46029;DHT22;31763;48.180;7.904;2022-12-07T09:33:55;3.20;99.90
46029;DHT22;31763;48.180;7.904;2022-12-07T09:36:22;4.80;99.90
46029;DHT22;31763;48.180;7.904;2022-12-07T09:38:49;4.70;99.90
46029;DHT22;31763;48.180;7.904;2022-12-07T09:41:16;3.10;99.90
46029;DHT22;31763;48.180;7.904;2022-12-07T09:43:43;2.90;99.90
46029;DHT22;31763;48.180;7.904;2022-12-07T09:46:13;2.40;99.90
46029;DHT22;31763;48.180;7.904;2022-12-07T09:48:42;2.40;99.90
46029;DHT22;31763;48.180;7.904;2022-12-07T09:51:13;2.20;99.90
46029;DHT22;31763;48.180;7.904;2022-12-07T09:53:49;2.30;99.90
46029;DHT22;31763;48.180;7.904;2022-12-07T09:56:17;2.20;99.90
46029;DHT22;31763;48.180;7.904;2022-12-07T09:58:45;2.30;99.90
46029;DHT22;31763;48.180;7.904;2022-12-07T10:01:13;2.40;99.90
46029;DHT22;31763;48.180;7.904;2022-12-07T10:04:27;2.50;99.90
46029;DHT22;31763;48.180;7.904;2022-12-07T10:07:01;2.60;99.90
46029;DHT22;31763;48.180;7.904;2022-12-07T10:09:28;2.70;99.90
46029;DHT22;31763;48.180;7.904;2022-12-07T10:12:05;2.80;99.90
46029;DHT22;31763;48.180;7.904;2022-12-07T10:14:36;2.90;99.90
46029;DHT22;31763;48.180;7.904;2022-12-07T10:17:37;3.00;99.90
46029;DHT22;31763;48.180;7.904;2022-12-07T10:22:53;3.20;99.90
46029;DHT22;31763;48.180;7.904;2022-12-07T10:25:21;3.20;99.90
46029;DHT22;31763;48.180;7.904;2022-12-07T10:30:33;3.30;99.90
46029;DHT22;31763;48.180;7.904;2022-12-07T10:35:56;3.40;99.90
46029;DHT22;31763;48.180;7.904;2022-12-07T10:38:24;3.40;99.90
46029;DHT22;31763;48.180;7.904;2022-12-07T10:41:03;3.70;99.90
46029;DHT22;31763;48.180;7.904;2022-12-07T10:43:30;3.60;99.90
46029;DHT22;31763;48.180;7.904;2022-12-07T10:49:07;3.80;99.90
46029;DHT22;31763;48.180;7.904;2022-12-07T10:58:02;3.70;99.90
46029;DHT22;31763;48.180;7.904;2022-12-07T11:00:23;3.80;99.90
46029;DHT22;31763;48.180;7.904;2022-12-07T11:11:22;4.10;99.90
46029;DHT22;31763;48.180;7.904;2022-12-07T11:14:09;3.90;99.90
46029;DHT22;31763;48.180;7.904;2022-12-07T11:22:09;3.90;99.90
46029;DHT22;31763;48.180;7.904;2022-12-07T11:24:50;4.00;99.90
46029;DHT22;31763;48.180;7.904;2022-12-07T11:27:30;4.00;99.90
46029;DHT22;31763;48.180;7.904;2022-12-07T11:30:08;4.10;99.90
46029;DHT22;31763;48.180;7.904;2022-12-07T11:38:26;4.10;99.90
46029;DHT22;31763;48.180;7.904;2022-12-07T11:41:22;4.10;99.90
46029;DHT22;31763;48.180;7.904;2022-12-07T11:53:45;4.10;99.90
46029;DHT22;31763;48.180;7.904;2022-12-07T11:56:32;4.20;99.90
46029;DHT22;31763;48.180;7.904;2022-12-07T11:59:06;4.20;99.90
46029;DHT22;31763;48.180;7.904;2022-12-07T12:06:31;4.20;99.90
46029;DHT22;31763;48.180;7.904;2022-12-07T12:09:06;4.20;99.90
46029;DHT22;31763;48.180;7.904;2022-12-07T12:12:01;4.20;99.90
46029;DHT22;31763;48.180;7.904;2022-12-07T12:14:59;4.00;99.90
46029;DHT22;31763;48.180;7.904;2022-12-07T12:20:23;4.00;99.90
46029;DHT22;31763;48.180;7.904;2022-12-07T12:23:09;4.10;99.90
46029;DHT22;31763;48.180;7.904;2022-12-07T12:25:40;4.10;99.90
46029;DHT22;31763;48.180;7.904;2022-12-07T12:28:20;4.10;99.90
46029;DHT22;31763;48.180;7.904;2022-12-07T12:33:36;4.00;99.90
46029;DHT22;31763;48.180;7.904;2022-12-07T12:36:47;3.90;99.90
46029;DHT22;31763;48.180;7.904;2022-12-07T12:51:43;4.20;99.90
46029;DHT22;31763;48.180;7.904;2022-12-07T12:54:20;4.10;99.90
46029;DHT22;31763;48.180;7.904;2022-12-07T12:59:42;4.00;99.90
46029;DHT22;31763;48.180;7.904;2022-12-07T13:02:25;4.00;99.90
46029;DHT22;31763;48.180;7.904;2022-12-07T13:15:50;4.00;99.90
46029;DHT22;31763;48.180;7.904;2022-12-07T13:18:22;4.00;99.90
46029;DHT22;31763;48.180;7.904;2022-12-07T13:31:43;3.90;99.90
46029;DHT22;31763;48.180;7.904;2022-12-07T13:36:54;3.90;99.90
46029;DHT22;31763;48.180;7.904;2022-12-07T13:39:22;3.90;99.90
46029;DHT22;31763;48.180;7.904;2022-12-07T13:41:53;3.90;99.90
46029;DHT22;31763;48.180;7.904;2022-12-07T13:44:23;3.80;99.90
46029;DHT22;31763;48.180;7.904;2022-12-07T13:47:15;3.80;99.90
46029;DHT22;31763;48.180;7.904;2022-12-07T13:49:44;3.80;99.90
46029;DHT22;31763;48.180;7.904;2022-12-07T13:52:20;3.70;99.90
46029;DHT22;31763;48.180;7.904;2022-12-07T13:54:54;3.70;99.90
46029;DHT22;31763;48.180;7.904;2022-12-07T13:57:23;3.80;99.90
46029;DHT22;31763;48.180;7.904;2022-12-07T13:59:51;3.80;99.90
46029;DHT22;31763;48.180;7.904;2022-12-07T14:02:22;3.60;99.90
46029;DHT22;31763;48.180;7.904;2022-12-07T14:04:50;3.60;99.90
46029;DHT22;31763;48.180;7.904;2022-12-07T14:09:54;3.50;99.90
46029;DHT22;31763;48.180;7.904;2022-12-07T14:12:21;3.50;99.90
46029;DHT22;31763;48.180;7.904;2022-12-07T14:14:49;3.50;99.90
46029;DHT22;31763;48.180;7.904;2022-12-07T14:17:20;3.50;99.90
46029;DHT22;31763;48.180;7.904;2022-12-07T14:19:54;3.50;99.90
46029;DHT22;31763;48.180;7.904;2022-12-07T14:25:22;3.30;99.90
46029;DHT22;31763;48.180;7.904;2022-12-07T14:28:02;3.30;99.90
46029;DHT22;31763;48.180;7.904;2022-12-07T14:30:45;3.20;99.90
46029;DHT22;31763;48.180;7.904;2022-12-07T14:33:46;3.10;99.90
46029;DHT22;31763;48.180;7.904;2022-12-07T14:36:46;3.10;99.90
46029;DHT22;31763;48.180;7.904;2022-12-07T14:39:36;3.10;99.90
46029;DHT22;31763;48.180;7.904;2022-12-07T14:42:03;3.20;99.90
46029;DHT22;31763;48.180;7.904;2022-12-07T14:44:30;3.40;99.90
46029;DHT22;31763;48.180;7.904;2022-12-07T14:47:01;3.60;99.90
46029;DHT22;31763;48.180;7.904;2022-12-07T14:49:48;3.50;99.90
46029;DHT22;31763;48.180;7.904;2022-12-07T14:52:16;3.40;99.90
46029;DHT22;31763;48.180;7.904;2022-12-07T14:55:07;3.20;99.90
46029;DHT22;31763;48.180;7.904;2022-12-07T14:57:39;3.50;99.90
46029;DHT22;31763;48.180;7.904;2022-12-07T15:00:06;3.60;99.90
46029;DHT22;31763;48.180;7.904;2022-12-07T15:02:34;3.80;99.90
46029;DHT22;31763;48.180;7.904;2022-12-07T15:05:01;4.30;99.90
46029;DHT22;31763;48.180;7.904;2022-12-07T15:07:29;5.70;99.90
46029;DHT22;31763;48.180;7.904;2022-12-07T15:09:55;5.00;99.90
46029;DHT22;31763;48.180;7.904;2022-12-07T15:12:22;4.10;99.90
46029;DHT22;31763;48.180;7.904;2022-12-07T15:14:51;3.70;99.90
46029;DHT22;31763;48.180;7.904;2022-12-07T15:17:17;3.30;99.90
46029;DHT22;31763;48.180;7.904;2022-12-07T15:19:55;3.00;99.90
46029;DHT22;31763;48.180;7.904;2022-12-07T15:22:21;2.70;99.90
46029;DHT22;31763;48.180;7.904;2022-12-07T15:24:48;2.50;99.90
46029;DHT22;31763;48.180;7.904;2022-12-07T15:27:15;2.30;99.90
46029;DHT22;31763;48.180;7.904;2022-12-07T15:29:42;2.30;99.90
46029;DHT22;31763;48.180;7.904;2022-12-07T15:32:08;2.30;99.90
46029;DHT22;31763;48.180;7.904;2022-12-07T15:34:35;2.20;99.90
46029;DHT22;31763;48.180;7.904;2022-12-07T15:37:06;2.20;99.90
46029;DHT22;31763;48.180;7.904;2022-12-07T15:39:35;2.10;99.90
46029;DHT22;31763;48.180;7.904;2022-12-07T15:42:02;2.00;99.90
46029;DHT22;31763;48.180;7.904;2022-12-07T15:44:29;2.00;99.90
46029;DHT22;31763;48.180;7.904;2022-12-07T15:47:14;1.80;99.90
46029;DHT22;31763;48.180;7.904;2022-12-07T15:49:41;1.70;99.90
46029;DHT22;31763;48.180;7.904;2022-12-07T15:52:08;1.60;99.90
46029;DHT22;31763;48.180;7.904;2022-12-07T15:54:35;1.60;99.90
46029;DHT22;31763;48.180;7.904;2022-12-07T15:57:02;1.50;99.90
46029;DHT22;31763;48.180;7.904;2022-12-07T15:59:29;1.50;99.90
46029;DHT22;31763;48.180;7.904;2022-12-07T16:01:55;1.40;99.90
46029;DHT22;31763;48.180;7.904;2022-12-07T16:04:23;1.40;99.90
46029;DHT22;31763;48.180;7.904;2022-12-07T16:06:50;1.40;99.90
46029;DHT22;31763;48.180;7.904;2022-12-07T16:09:17;1.40;99.90
46029;DHT22;31763;48.180;7.904;2022-12-07T16:11:44;1.30;99.90
46029;DHT22;31763;48.180;7.904;2022-12-07T16:14:11;1.30;99.90
46029;DHT22;31763;48.180;7.904;2022-12-07T16:16:38;1.20;99.90
46029;DHT22;31763;48.180;7.904;2022-12-07T16:19:07;1.00;99.90
46029;DHT22;31763;48.180;7.904;2022-12-07T16:21:34;1.00;99.90
46029;DHT22;31763;48.180;7.904;2022-12-07T16:24:02;1.10;99.90
46029;DHT22;31763;48.180;7.904;2022-12-07T16:26:29;1.10;99.90
46029;DHT22;31763;48.180;7.904;2022-12-07T16:28:56;1.10;99.90
46029;DHT22;31763;48.180;7.904;2022-12-07T16:31:25;1.00;99.90
46029;DHT22;31763;48.180;7.904;2022-12-07T16:33:54;1.10;99.90
46029;DHT22;31763;48.180;7.904;2022-12-07T16:36:21;1.00;99.90
46029;DHT22;31763;48.180;7.904;2022-12-07T16:39:12;1.00;99.90
46029;DHT22;31763;48.180;7.904;2022-12-07T16:41:38;1.00;99.90
46029;DHT22;31763;48.180;7.904;2022-12-07T16:44:06;1.10;99.90
46029;DHT22;31763;48.180;7.904;2022-12-07T16:46:34;1.00;99.90
46029;DHT22;31763;48.180;7.904;2022-12-07T16:49:02;1.00;99.90
46029;DHT22;31763;48.180;7.904;2022-12-07T16:51:29;1.20;99.90
46029;DHT22;31763;48.180;7.904;2022-12-07T16:53:57;1.30;99.90
46029;DHT22;31763;48.180;7.904;2022-12-07T16:56:23;1.40;99.90
46029;DHT22;31763;48.180;7.904;2022-12-07T16:58:52;1.50;99.90
46029;DHT22;31763;48.180;7.904;2022-12-07T17:01:20;1.40;99.90
46029;DHT22;31763;48.180;7.904;2022-12-07T17:03:49;1.30;99.90
46029;DHT22;31763;48.180;7.904;2022-12-07T17:06:17;1.20;99.90
46029;DHT22;31763;48.180;7.904;2022-12-07T17:08:45;1.20;99.90
46029;DHT22;31763;48.180;7.904;2022-12-07T17:11:13;1.10;99.90
46029;DHT22;31763;48.180;7.904;2022-12-07T17:13:41;1.20;99.90
46029;DHT22;31763;48.180;7.904;2022-12-07T17:16:27;1.20;99.90
46029;DHT22;31763;48.180;7.904;2022-12-07T17:18:55;1.30;99.90
46029;DHT22;31763;48.180;7.904;2022-12-07T17:21:22;1.30;99.90
46029;DHT22;31763;48.180;7.904;2022-12-07T17:23:49;1.40;99.90
46029;DHT22;31763;48.180;7.904;2022-12-07T17:26:16;1.50;99.90
46029;DHT22;31763;48.180;7.904;2022-12-07T17:28:45;1.30;99.90
46029;DHT22;31763;48.180;7.904;2022-12-07T17:31:12;1.20;99.90
46029;DHT22;31763;48.180;7.904;2022-12-07T17:33:40;1.20;99.90
46029;DHT22;31763;48.180;7.904;2022-12-07T17:36:10;1.00;99.90
46029;DHT22;31763;48.180;7.904;2022-12-07T17:38:41;1.10;99.90
46029;DHT22;31763;48.180;7.904;2022-12-07T17:41:09;1.20;99.90
46029;DHT22;31763;48.180;7.904;2022-12-07T17:43:37;1.40;99.90
46029;DHT22;31763;48.180;7.904;2022-12-07T17:46:05;1.60;99.90
46029;DHT22;31763;48.180;7.904;2022-12-07T17:48:35;1.60;99.90
46029;DHT22;31763;48.180;7.904;2022-12-07T17:51:03;1.50;99.90
46029;DHT22;31763;48.180;7.904;2022-12-07T17:53:48;1.50;99.90
46029;DHT22;31763;48.180;7.904;2022-12-07T17:56:16;1.60;99.90
46029;DHT22;31763;48.180;7.904;2022-12-07T17:58:54;1.50;99.90
46029;DHT22;31763;48.180;7.904;2022-12-07T18:01:21;1.50;99.90
46029;DHT22;31763;48.180;7.904;2022-12-07T18:03:50;1.50;99.90
46029;DHT22;31763;48.180;7.904;2022-12-07T18:06:16;1.50;99.90
46029;DHT22;31763;48.180;7.904;2022-12-07T18:08:43;1.40;99.90
46029;DHT22;31763;48.180;7.904;2022-12-07T18:11:10;1.40;99.90
46029;DHT22;31763;48.180;7.904;2022-12-07T18:13:37;1.50;99.90
46029;DHT22;31763;48.180;7.904;2022-12-07T18:16:05;1.60;99.90
46029;DHT22;31763;48.180;7.904;2022-12-07T18:18:37;1.60;99.90
46029;DHT22;31763;48.180;7.904;2022-12-07T18:21:09;1.50;99.90
46029;DHT22;31763;48.180;7.904;2022-12-07T18:23:53;1.10;99.90
46029;DHT22;31763;48.180;7.904;2022-12-07T18:26:43;1.20;99.90
46029;DHT22;31763;48.180;7.904;2022-12-07T18:29:49;1.40;99.90
46029;DHT22;31763;48.180;7.904;2022-12-07T18:32:21;1.50;99.90
46029;DHT22;31763;48.180;7.904;2022-12-07T18:35:19;1.40;99.90
46029;DHT22;31763;48.180;7.904;2022-12-07T18:38:16;1.40;99.90